• Join FlightAware (Why Join?)
  • Login
  • US Flag GB Flag 
20:52 EST


 

Airport Tracker/Info


-or-


 

Live Flight TrackerFlight Track Log ✈ ACA831 ✈ 09-May-2013 ✈ LSGG / GVA - CYUL

Flight Track Log - Related Links

Times and Time Zones

All times are in EDT time to prevent confusion due to time zone crossing. See the ACA831 flight status page for this flight to view local times or setup timezone preferences in your user account.

Time Position Orientation Groundspeed Altitude Reporting Facility
EDT Latitude Longitude Course Direction KTS MPH feet Rate Location/Type
06:37 46.2280 6.0940 223° Southwest 186 214 1,700  Level FlightAware
06:38 46.2100 6.0670 226° Southwest 186 214 3,200 2,700 Climbing FlightAware
06:38 46.1960 6.0450 227° Southwest 186 214 4,200 2,400 Climbing FlightAware
06:39 46.1780 6.0180 226° Southwest 187 215 5,400 2,400 Climbing FlightAware
06:39 46.1620 5.9960 224° Southwest 188 216 6,400 2,160 Climbing FlightAware
06:40 46.1450 5.9660 231° Southwest 202 232 7,400 1,680 Climbing FlightAware
06:40 46.1440 5.9460 266° West 225 259 7,700 960 Climbing FlightAware
06:40 46.1510 5.9250 296° West 254 292 7,900 1,440 Climbing FlightAware
06:40 46.1600 5.9140 320° Northwest 262 302 8,300 1,920 Climbing FlightAware
06:41 46.1970 5.8910 337° Northwest 283 326 9,200 1,980 Climbing FlightAware
06:41 46.2150 5.8800 337° Northwest 296 341 9,800 2,280 Climbing FlightAware
06:42 46.2680 5.8510 339° North 311 358 11,300 1,620 Climbing FlightAware
06:42 46.3300 5.8160 339° North 365 420 12,100 1,440 Climbing FlightAware
06:43 46.4020 5.7560 330° Northwest 402 463 13,400 2,280 Climbing FlightAware
06:44 46.4650 5.6950 326° Northwest 413 475 15,200 2,760 Climbing FlightAware
06:44 46.5290 5.6330 326° Northwest 417 480 17,100 2,520 Climbing FlightAware
06:45 46.6010 5.5620 326° Northwest 429 494 18,800 2,220 Climbing FlightAware
06:46 46.6660 5.4990 326° Northwest 436 502 20,300 2,280 Climbing FlightAware
06:47 46.7430 5.4230 326° Northwest 441 507 22,100 2,400 Climbing FlightAware
06:47 46.8080 5.3500 322° Northwest 439 505 23,700 2,280 Climbing FlightAware
06:48 46.8680 5.2760 320° Northwest 433 498 25,200 2,580 Climbing FlightAware
06:49 46.9360 5.1890 319° Northwest 420 483 27,400 2,400 Climbing FlightAware
06:49 46.9910 5.1190 319° Northwest 421 484 28,600 1,680 Climbing FlightAware
06:50 47.0600 5.0320 319° Northwest 425 489 29,800 1,560 Climbing FlightAware
06:51 47.1100 4.9670 319° Northwest 426 490 30,700 1,440 Climbing FlightAware
06:51 47.1810 4.8780 320° Northwest 421 484 31,900 840 Climbing FlightAware
06:52 47.2410 4.8000 319° Northwest 417 480 32,000 60 Climbing FlightAware
06:53 47.3000 4.7140 315° West 414 476 32,000  Level FlightAware
06:54 47.3600 4.6250 315° West 414 476 32,000  Level FlightAware
06:54 47.4110 4.5480 314° West 415 478 32,000  Level FlightAware
06:55 47.4740 4.4540 315° West 415 478 32,000  Level FlightAware
06:56 47.5290 4.3710 314° West 416 479 32,000  Level FlightAware
06:56 47.5840 4.2890 315° West 417 480 32,000  Level FlightAware
06:57 47.6430 4.1990 314° West 419 482 32,000  Level FlightAware
06:58 47.6970 4.1180 315° West 420 483 32,000  Level FlightAware
06:58 47.7510 4.0360 314° West 421 484 32,000  Level FlightAware
06:59 47.8150 3.9400 315° West 423 487 32,000  Level FlightAware
06:59 47.8420 3.8984 314° West 424 488 32,000  Level FlightAware ADS-B
07:00 47.8860 3.8318 315° West 424 488 32,000  Level FlightAware ADS-B
07:00 47.9287 3.7667 314° West 425 489 32,000  Level FlightAware ADS-B
07:01 47.9702 3.7036 314° West 425 489 32,000  Level FlightAware ADS-B
07:02 48.0125 3.6390 314° West 425 489 32,000  Level FlightAware ADS-B
07:02 48.0624 3.5621 314° West 425 489 32,000  Level FlightAware ADS-B
07:03 48.1045 3.4974 314° West 424 488 32,000  Level FlightAware ADS-B
07:03 48.1470 3.4316 314° West 425 489 32,000  Level FlightAware ADS-B
07:04 48.1930 3.3600 314° West 418 481 32,000  Level FlightAware
07:05 48.2983 3.1972 314° West 422 486 32,000  Level FlightAware ADS-B
07:06 48.3397 3.1319 314° West 422 486 32,000  Level FlightAware ADS-B
07:06 48.3798 3.0684 314° West 421 484 32,000  Level FlightAware ADS-B
07:06 48.4119 3.0171 313° West 415 478 32,000  Level FlightAware ADS-B
07:07 48.4222 2.9962 307° West 405 466 32,000  Level FlightAware ADS-B
07:07 48.4366 2.9563 299° West 392 451 32,000  Level FlightAware ADS-B
07:07 48.4504 2.8876 287° West 384 442 32,000 300 Level FlightAware ADS-B
07:08 48.4646 2.8100 285° West 389 448 32,300 960 Climbing FlightAware ADS-B
07:08 48.4808 2.7304 287° West 388 447 33,000 1,500 Climbing FlightAware ADS-B
07:09 48.4988 2.6470 288° West 384 442 33,900 1,320 Climbing FlightAware ADS-B
07:09 48.5046 2.6195 288° West 385 443 34,000 120 Climbing FlightAware ADS-B
07:10 48.5218 2.5406 288° West 389 448 34,000  Level FlightAware ADS-B
07:10 48.5370 2.4720 289° West 385 443 34,000  Level FlightAware
07:10 48.5427 2.4430 287° West 386 444 34,000  Level FlightAware ADS-B
07:11 48.5592 2.3644 288° West 384 442 34,000  Level FlightAware ADS-B
07:11 48.5752 2.2870 287° West 384 442 34,000  Level FlightAware ADS-B
07:12 48.5958 2.1873 287° West 382 440 34,000  Level FlightAware ADS-B
07:12 48.6124 2.0984 286° West 380 437 34,000  Level FlightAware ADS-B
07:13 48.6272 2.0189 286° West 379 436 34,000  Level FlightAware ADS-B
07:13 48.6415 1.9423 286° West 378 435 34,000 -1,680 Level FlightAware ADS-B
07:14 48.6362 1.8723 286° West 466 536 32,500  Descending FlightAware UK
07:14 48.6564 1.8606 286° West 377 434 34,000  Climbing FlightAware ADS-B
07:14 48.6472 1.8122 286° West 466 536 32,500  Descending FlightAware UK
07:15 48.6709 1.7815 286° West 377 434 34,000 1,860 Climbing FlightAware ADS-B
07:15 48.6861 1.6983 285° West 376 433 34,000 -1,800 Level FlightAware ADS-B
07:15 48.6764 1.6446 285° West 462 532 32,500  Descending FlightAware UK
07:16 48.7003 1.6199 285° West 376 433 34,000 -240 Climbing FlightAware ADS-B
07:16 48.6899 1.5697 285° West 462 532 32,400  Descending FlightAware UK
07:16 48.7164 1.5331 285° West 376 433 34,000  Climbing FlightAware ADS-B
07:16 48.7067 1.4786 285° West 462 532 32,400  Descending FlightAware UK
07:17 48.7326 1.4467 285° West 376 433 34,000 2,040 Climbing FlightAware ADS-B
07:17 48.7472 1.3685 286° West 376 433 34,000  Level FlightAware ADS-B
07:18 48.7690 1.2503 286° West 377 434 34,000  Level FlightAware ADS-B
07:19 48.7827 1.1742 285° West 377 434 34,000  Level FlightAware ADS-B
07:19 48.7966 1.0974 285° West 377 434 34,000  Level FlightAware ADS-B
07:20 48.8105 1.0196 285° West 376 433 34,000  Level FlightAware ADS-B
07:20 48.8263 0.9307 285° West 377 434 34,000 -1,800 Level FlightAware ADS-B
07:20 48.8133 0.8864 285° West 468 539 32,500  Descending FlightAware UK
07:21 48.8400 0.8524 285° West 377 434 34,000  Climbing FlightAware ADS-B
07:21 48.8266 0.8095 285° West 466 536 32,500  Descending FlightAware UK
07:21 48.8545 0.7693 285° West 375 432 34,000  Climbing FlightAware ADS-B
07:21 48.8426 0.7185 285° West 466 536 32,500 -2,520 Descending FlightAware UK
07:22 48.8504 0.6728 285° West 466 536 32,500  Level FlightAware UK
07:22 48.8583 0.6275 285° West 466 536 32,500 3,060 Level FlightAware UK
07:22 48.8831 0.6025 285° West 375 432 34,000  Climbing FlightAware ADS-B
07:23 48.8714 0.5528 285° West 466 536 32,500  Descending FlightAware UK
07:23 48.8950 0.5310 284° West 375 432 34,000  Climbing FlightAware
07:23 48.8790 0.5077 284° West 466 536 32,500  Descending FlightAware UK
07:23 48.9050 0.4748 285° West 376 433 34,000 1,920 Climbing FlightAware ADS-B
07:24 48.9180 0.3970 284° West 376 433 34,000  Level FlightAware
07:24 48.9272 0.3424 284° West 377 434 34,000 -2,400 Level FlightAware ADS-B
07:24 48.9151 0.2935 284° West 466 536 32,500  Descending FlightAware UK
07:25 48.9422 0.2547 284° West 378 435 34,000 1,740 Climbing FlightAware ADS-B
07:25 48.9566 0.1673 284° West 378 435 34,000 -1,680 Level FlightAware ADS-B
07:25 48.9438 0.1076 284° West 464 534 32,500  Descending FlightAware UK
07:26 48.9710 0.0820 284° West 380 437 34,000  Climbing FlightAware
07:26 48.9596 0.0146 284° West 464 534 32,500  Descending FlightAware UK
07:26 48.9851 -0.0042 284° West 381 438 34,000 2,040 Climbing FlightAware ADS-B
07:27 48.9995 -0.0925 284° West 382 440 34,000 -1,800 Level FlightAware ADS-B
07:27 48.9861 -0.1409 284° West 462 532 32,500  Descending FlightAware UK
07:27 49.0177 -0.2036 284° West 382 440 34,000  Climbing FlightAware ADS-B
07:28 49.0096 -0.2827 284° West 464 534 32,500 -1,980 Descending FlightAware UK
07:28 49.0171 -0.3298 284° West 464 534 32,500 2,520 Level FlightAware UK
07:29 49.0440 -0.3640 284° West 388 447 34,000  Climbing FlightAware
07:29 49.0379 -0.4577 284° West 466 536 32,500  Descending FlightAware UK
07:29 49.0590 -0.4710 284° West 385 443 34,000 1,620 Climbing FlightAware
07:30 49.0650 -0.5950 274° West 386 444 34,000 -1,320 Level FlightAware
07:30 49.0477 -0.6685 274° West 468 539 32,500  Descending FlightAware UK
07:31 49.0690 -0.7020 274° West 389 448 34,000  Climbing FlightAware
07:31 49.0517 -0.7666 274° West 472 543 32,500  Descending FlightAware UK
07:31 49.0740 -0.8190 274° West 391 450 34,000  Climbing FlightAware
07:32 49.0563 -0.8819 274° West 474 545 32,500 -2,580 Descending FlightAware UK
07:32 49.0580 -0.9315 273° West 474 545 32,500 3,900 Level FlightAware UK
07:32 49.0770 -0.9360 273° West 393 452 34,000  Climbing FlightAware
07:32 49.0605 -1.0137 273° West 474 545 32,500  Descending FlightAware UK
07:33 49.0810 -1.0500 273° West 393 452 34,000  Climbing FlightAware
07:33 49.0654 -1.1629 273° West 472 543 32,500  Descending FlightAware UK
07:33 49.0850 -1.1710 273° West 393 452 34,000  Climbing FlightAware
07:34 49.0678 -1.2289 273° West 470 541 32,500 -2,580 Descending FlightAware UK
07:34 49.0699 -1.2786 274° West 470 541 32,500 3,900 Level FlightAware UK
07:34 49.0890 -1.2780 274° West 394 453 34,000  Climbing FlightAware
07:35 49.0742 -1.3782 274° West 474 545 32,500  Descending FlightAware UK
07:35 49.0930 -1.3760 274° West 394 453 34,000  Climbing FlightAware
07:35 49.0765 -1.4446 274° West 472 543 32,500  Descending FlightAware UK
07:36 49.0970 -1.5070 274° West 394 453 34,000  Climbing FlightAware
07:36 49.0824 -1.5937 274° West 474 545 32,500  Descending FlightAware UK
07:36 49.1050 -1.6230 274° West 398 458 34,000  Climbing FlightAware
07:37 49.0982 -1.6908 274° West 474 545 32,500  Descending FlightAware UK
07:37 49.1260 -1.7480 274° West 403 464 34,000  Climbing FlightAware
07:37 49.1260 -1.8379 274° West 472 543 32,500  Descending FlightAware UK
07:38 49.1480 -1.8610 274° West 402 463 34,000  Climbing FlightAware
07:38 49.1446 -1.9351 274° West 470 541 32,500  Descending FlightAware UK
07:38 49.1690 -1.9730 274° West 403 464 34,000  Climbing FlightAware
07:39 49.1640 -2.0329 274° West 468 539 32,500  Descending FlightAware UK
07:39 49.1920 -2.0920 274° West 405 466 34,000  Climbing FlightAware
07:40 49.1959 -2.1802 274° West 468 539 32,500  Descending FlightAware UK
07:40 49.2250 -2.2140 274° West 414 476 34,000  Climbing FlightAware
07:40 49.2273 -2.2737 274° West 468 539 32,500  Descending FlightAware UK
07:40 49.2570 -2.3180 274° West 415 478 34,000  Climbing FlightAware
07:41 49.2714 -2.4167 274° West 470 541 32,500  Descending FlightAware UK
07:41 49.2880 -2.4190 274° West 415 478 34,000  Climbing FlightAware
07:42 49.2957 -2.4966 274° West 466 536 32,500  Descending FlightAware UK
07:42 49.3220 -2.5340 274° West 417 480 34,000  Climbing FlightAware
07:42 49.3288 -2.6096 274° West 468 539 32,500  Descending FlightAware UK
07:43 49.3540 -2.6550 274° West 413 475 34,000  Climbing FlightAware
07:43 49.3502 -2.7094 274° West 468 539 32,500  Descending FlightAware UK
07:43 49.3750 -2.7760 274° West 412 474 34,000  Climbing FlightAware
07:44 49.3714 -2.8449 274° West 470 541 32,500  Descending FlightAware UK
07:44 49.3940 -2.8950 274° West 414 476 34,000  Climbing FlightAware
07:44 49.3882 -2.9480 274° West 472 543 32,500  Descending FlightAware UK
07:45 49.4110 -3.0090 274° West 416 479 34,000  Climbing FlightAware
07:45 49.4068 -3.0680 274° West 474 545 32,500 -2,520 Descending FlightAware UK
07:45 49.4146 -3.1197 283° West 474 545 32,500 3,300 Level FlightAware UK
07:45 49.4310 -3.1420 283° West 415 478 34,000  Climbing FlightAware
07:46 49.4248 -3.1887 283° West 474 545 32,500  Descending FlightAware UK
07:46 49.4470 -3.2560 283° West 416 479 34,000  Climbing FlightAware
07:46 49.4426 -3.3089 283° West 474 545 32,500 -2,580 Descending FlightAware UK
07:47 49.4503 -3.3608 283° West 476 548 32,500 3,900 Level FlightAware UK
07:47 49.4640 -3.3720 283° West 417 480 34,000  Climbing FlightAware
07:47 49.4628 -3.4467 283° West 474 545 32,500  Descending FlightAware UK
07:47 49.4830 -3.5000 283° West 416 479 34,000  Climbing FlightAware
07:48 49.4808 -3.5679 283° West 470 541 32,500  Descending FlightAware UK
07:48 49.4990 -3.6130 283° West 417 480 34,000  Climbing FlightAware
07:48 49.4963 -3.6722 283° West 476 548 32,500 -2,520 Descending FlightAware UK
07:49 49.5038 -3.7236 283° West 476 548 32,500 3,300 Level FlightAware UK
07:49 49.5180 -3.7480 283° West 416 479 34,000  Climbing FlightAware
07:49 49.5139 -3.7928 283° West 474 545 32,500  Descending FlightAware UK
07:50 49.5340 -3.8600 283° West 416 479 34,000  Climbing FlightAware
07:50 49.5335 -3.9311 283° West 472 543 32,500  Descending FlightAware UK
07:50 49.5500 -3.9760 283° West 416 479 34,000 1,440 Climbing FlightAware
07:51 49.5680 -4.1030 282° West 416 479 34,000 -1,260 Level FlightAware
07:51 49.5700 -4.1898 282° West 470 541 32,500  Descending FlightAware UK
07:52 49.5840 -4.2210 282° West 417 480 34,000  Climbing FlightAware
07:52 49.5824 -4.2763 282° West 470 541 32,500 -2,520 Descending FlightAware UK
07:52 49.5923 -4.3280 287° West 470 541 32,500 4,080 Level FlightAware UK
07:52 49.6050 -4.3360 287° West 425 489 34,000  Climbing FlightAware
07:53 49.6159 -4.3921 287° West 468 539 32,500 -2,100 Descending FlightAware UK
07:53 49.6418 -4.4537 303° West 470 541 32,500 3,600 Level FlightAware UK
07:53 49.6510 -4.4570 303° West 430 495 34,000  Climbing FlightAware
07:53 49.6599 -4.5021 303° West 468 539 32,500 -2,700 Descending FlightAware UK
07:54 49.6780 -4.5493 301° West 468 539 32,500 3,900 Level FlightAware UK
07:54 49.6900 -4.5610 301° West 432 497 34,000  Climbing FlightAware
07:54 49.7210 -4.6606 301° West 470 541 32,500  Descending FlightAware UK
07:54 49.7350 -4.6760 301° West 433 498 34,000  Climbing FlightAware
07:55 49.7457 -4.7242 301° West 468 539 32,500  Descending FlightAware UK
07:55 49.7750 -4.7830 301° West 434 499 34,000  Climbing FlightAware
07:55 49.7890 -4.8361 301° West 470 541 32,500 -2,580 Descending FlightAware UK
07:56 49.8074 -4.8843 301° West 470 541 32,500 3,900 Level FlightAware UK
07:56 49.8170 -4.8910 301° West 435 501 34,000  Climbing FlightAware
07:56 49.8321 -4.9486 301° West 470 541 32,500 -2,460 Descending FlightAware UK
07:56 49.8506 -4.9968 301° West 468 539 32,500 3,420 Level FlightAware UK
07:57 49.8640 -5.0150 301° West 436 502 34,000  Climbing FlightAware
07:57 49.8750 -5.0609 301° West 468 539 32,500 -2,700 Descending FlightAware UK
07:57 49.8934 -5.1095 301° West 470 541 32,500 3,720 Level FlightAware UK
07:57 49.9050 -5.1230 301° West 436 502 34,000  Climbing FlightAware
07:58 49.9180 -5.1744 301° West 468 539 32,500 -2,520 Descending FlightAware UK
07:58 49.9364 -5.2231 301° West 470 541 32,500 3,300 Level FlightAware UK
07:58 49.9490 -5.2420 301° West 438 504 34,000  Climbing FlightAware
07:58 49.9609 -5.2882 301° West 474 545 32,500 -2,760 Descending FlightAware UK
07:59 49.9794 -5.3372 300° West 474 545 32,500 3,600 Level FlightAware UK
07:59 49.9900 -5.3510 300° West 438 504 34,000  Climbing FlightAware
07:59 50.0038 -5.4025 300° West 476 548 32,500 -2,580 Descending FlightAware UK
07:59 50.0221 -5.4514 300° West 474 545 32,500 2,700 Level FlightAware UK
07:59 50.0420 -5.4900 300° West 436 502 34,000  Climbing FlightAware
08:00 50.0524 -5.5329 300° West 472 543 32,500  Descending FlightAware UK
08:00 50.0710 -5.5690 300° West 436 502 34,000  Climbing FlightAware
08:00 50.0826 -5.6143 300° West 474 545 32,500 -2,760 Descending FlightAware UK
08:01 50.1008 -5.6631 300° West 476 548 32,500 3,600 Level FlightAware UK
08:01 50.1110 -5.6780 300° West 436 502 34,000  Climbing FlightAware
08:01 50.1249 -5.7284 300° West 474 545 32,500 -2,580 Descending FlightAware UK
08:01 50.1429 -5.7773 300° West 472 543 32,500 3,900 Level FlightAware UK
08:01 50.1520 -5.7880 300° West 434 499 34,000  Climbing FlightAware
08:02 50.1668 -5.8425 300° West 472 543 32,500 -2,460 Descending FlightAware UK
08:02 50.1849 -5.8911 300° West 470 541 32,500 4,260 Level FlightAware UK
08:02 50.1920 -5.8980 300° West 433 498 34,000  Climbing FlightAware
08:02 50.2028 -5.9392 300° West 468 539 32,500 -2,760 Descending FlightAware UK
08:03 50.2209 -5.9877 300° West 466 536 32,500 3,600 Level FlightAware UK
08:03 50.2310 -6.0010 300° West 433 498 34,000  Climbing FlightAware
08:03 50.2510 -6.0687 300° West 468 539 32,500  Descending FlightAware UK
08:03 50.2710 -6.1090 300° West 433 498 34,000  Climbing FlightAware
08:03 50.2692 -6.1174 300° West 468 539 32,500 -4,740 Descending FlightAware UK
08:04 50.2871 -6.1663 300° West 468 539 32,500  Level FlightAware UK
08:04 50.3049 -6.2155 300° West 468 539 32,500 4,260 Level FlightAware UK
08:04 50.3100 -6.2160 300° West 434 499 34,000  Climbing FlightAware
08:04 50.3227 -6.2646 300° West 468 539 32,500 -2,760 Descending FlightAware UK
08:05 50.3404 -6.3138 300° West 468 539 32,500 3,600 Level FlightAware UK
08:05 50.3500 -6.3270 300° West 434 499 34,000  Climbing FlightAware
08:05 50.3641 -6.3794 300° West 470 541 32,500  Descending FlightAware UK
08:05 50.3890 -6.4360 300° West 435 501 34,000  Climbing FlightAware
08:05 50.3880 -6.4449 300° West 470 541 32,500 -4,740 Descending FlightAware UK
08:06 50.4058 -6.4943 300° West 470 541 32,500  Level FlightAware UK
08:06 50.4236 -6.5434 300° West 470 541 32,500 3,420 Level FlightAware UK
08:06 50.4350 -6.5610 300° West 435 501 34,000  Climbing FlightAware
08:06 50.4474 -6.6090 300° West 472 543 32,500 -2,700 Descending FlightAware UK
08:07 50.4652 -6.6584 299° West 472 543 32,500 3,720 Level FlightAware UK
08:07 50.4740 -6.6720 299° West 434 499 34,000  Climbing FlightAware
08:07 50.4888 -6.7244 299° West 470 541 32,500 -2,520 Descending FlightAware UK
08:07 50.5064 -6.7740 299° West 470 541 32,500 3,300 Level FlightAware UK
08:07 50.5180 -6.7940 299° West 435 501 34,000  Climbing FlightAware
08:08 50.5298 -6.8402 299° West 474 545 32,500 -2,760 Descending FlightAware UK
08:08 50.5473 -6.8898 299° West 474 545 32,500 3,600 Level FlightAware UK
08:08 50.5570 -6.9030 299° West 433 498 34,000  Climbing FlightAware
08:08 50.5708 -6.9559 299° West 474 545 32,500 -2,580 Descending FlightAware UK
08:09 50.5883 -7.0054 299° West 474 545 32,500 3,900 Level FlightAware UK
08:09 50.5960 -7.0140 299° West 432 497 34,000  Climbing FlightAware
08:09 50.6112 -7.0707 299° West 474 545 32,500 -2,460 Descending FlightAware UK
08:09 50.6285 -7.1202 299° West 474 545 32,500 3,420 Level FlightAware UK
08:10 50.6370 -7.1320 299° West 430 495 34,000  Climbing FlightAware
08:10 50.6512 -7.1861 299° West 472 543 32,500 -2,700 Descending FlightAware UK
08:10 50.6685 -7.2354 299° West 470 541 32,500 3,720 Level FlightAware UK
08:10 50.6780 -7.2470 299° West 429 494 34,000  Climbing FlightAware
08:11 50.6915 -7.3011 299° West 468 539 32,500 -2,520 Descending FlightAware UK
08:11 50.7087 -7.3504 299° West 470 541 32,500 4,080 Level FlightAware UK
08:11 50.7170 -7.3580 299° West 431 496 34,000  Climbing FlightAware
08:11 50.7316 -7.4163 299° West 470 541 32,500 -2,400 Descending FlightAware UK
08:12 50.7488 -7.4657 299° West 470 541 32,500 3,600 Level FlightAware UK
08:12 50.7590 -7.4790 299° West 430 495 34,000  Climbing FlightAware
08:12 50.7719 -7.5316 299° West 470 541 32,500 -2,580 Descending FlightAware UK
08:12 50.7890 -7.5812 299° West 470 541 32,500  Level FlightAware UK
08:13 50.8062 -7.6308 299° West 470 541 32,500 4,500 Level FlightAware UK
08:13 50.8120 -7.6320 299° West 430 495 34,000  Climbing FlightAware
08:13 50.8232 -7.6805 299° West 470 541 32,500 -2,700 Descending FlightAware UK
08:13 50.8401 -7.7303 298° West 470 541 32,500 3,060 Level FlightAware UK
08:13 50.8530 -7.7510 298° West 430 495 34,000  Climbing FlightAware
08:14 50.8686 -7.8130 298° West 468 539 32,500 -2,460 Descending FlightAware UK
08:14 50.8857 -7.8627 299° West 468 539 32,500 4,260 Level FlightAware UK
08:14 50.8900 -7.8560 299° West 430 495 34,000  Climbing FlightAware
08:14 50.9027 -7.9125 299° West 470 541 32,500 -2,760 Descending FlightAware UK
08:15 50.9198 -7.9624 299° West 470 541 32,500 3,000 Level FlightAware UK
08:15 50.9310 -7.9750 299° West 427 491 34,000  Climbing FlightAware
08:15 50.9483 -8.0454 299° West 470 541 32,500 -2,520 Descending FlightAware UK
08:15 50.9653 -8.0954 298° West 470 541 32,500 4,080 Level FlightAware UK
08:15 50.9740 -8.1030 298° West 431 496 34,000  Climbing FlightAware
08:16 50.9878 -8.1622 298° West 470 541 32,500 -2,400 Descending FlightAware UK
08:16 51.0047 -8.2123 298° West 472 543 32,500 4,500 Level FlightAware UK
08:16 51.0070 -8.2000 298° West 427 491 34,000  Climbing FlightAware
08:16 51.0214 -8.2619 298° West 472 543 32,500 -2,700 Descending FlightAware UK
08:17 51.0382 -8.3121 298° West 472 543 32,500 3,720 Level FlightAware UK
08:17 51.0480 -8.3190 298° West 430 495 34,000  Climbing FlightAware
08:17 51.0606 -8.3790 298° West 472 543 32,500 -2,520 Descending FlightAware UK
08:17 51.0774 -8.4290 298° West 472 543 32,500 3,300 Level FlightAware UK
08:17 51.0920 -8.4490 298° West 429 494 34,000  Climbing FlightAware
08:18 51.0999 -8.4957 298° West 472 543 32,500 -2,760 Descending FlightAware UK
08:18 51.1167 -8.5458 298° West 472 543 32,500 3,000 Level FlightAware UK
08:18 51.1280 -8.5580 298° West 430 495 34,000  Climbing FlightAware
08:19 51.1445 -8.6292 298° West 472 543 32,500 -2,520 Descending FlightAware UK
08:19 51.1613 -8.6792 298° West 472 543 32,500 4,080 Level FlightAware UK
08:19 51.1690 -8.6780 298° West 429 494 34,000  Climbing FlightAware
08:19 51.1837 -8.7457 298° West 472 543 32,500 -2,400 Descending FlightAware UK
08:20 51.2004 -8.7957 298° West 472 543 32,500 4,500 Level FlightAware UK
08:20 51.2070 -8.7900 298° West 428 493 34,000  Climbing FlightAware
08:20 51.2169 -8.8457 298° West 472 543 32,500 -2,700 Descending FlightAware UK
08:20 51.2333 -8.8958 298° West 470 541 32,500 3,300 Level FlightAware UK
08:20 51.2480 -8.9150 298° West 427 491 34,100 960 Climbing FlightAware
08:21 51.2602 -8.9794 298° West 466 536 33,000 1,020 Descending FlightAware UK
08:21 51.2840 -9.0260 298° West 428 493 34,800 1,920 Climbing FlightAware
08:22 51.3210 -9.1380 298° West 435 501 35,000 120 Climbing FlightAware
08:22 51.3630 -9.2670 298° West 434 499 35,000  Level FlightAware
08:23 51.3990 -9.3780 298° West 433 498 35,000  Level FlightAware
08:24 51.4410 -9.5060 298° West 433 498 35,000  Level FlightAware
08:24 51.4770 -9.6190 297° West 432 497 35,000  Level FlightAware
08:25 51.5140 -9.7340 297° West 431 496 35,000  Level FlightAware
08:26 51.5580 -9.8730 297° West 429 494 35,000  Level FlightAware
08:27 51.5940 -9.9830 298° West 429 494 35,000  Level FlightAware
08:27 51.6210 -10.0720 296° West 428 493 35,000  Level FlightAware
08:28 51.6670 -10.2170 297° West 427 491 35,000  Level FlightAware
08:29 51.7040 -10.3340 297° West 427 491 35,000  Level FlightAware
08:30 51.7830 -10.5870 297° West 427 491 35,000  Level FlightAware
08:31 51.8090 -10.6700 297° West 428 493 35,000  Level FlightAware
08:32 51.8550 -10.8200 296° West 424 488 35,000  Level FlightAware
08:32 51.8870 -10.9250 296° West 425 489 35,000  Level FlightAware
08:33 51.9240 -11.0470 296° West 424 488 35,000  Level FlightAware
08:34 51.9750 -11.2150 296° West 423 487 35,000  Level FlightAware
08:35 52.0250 -11.3800 296° West 424 488 35,000  Level FlightAware
08:35 52.0600 -11.4980 296° West 425 489 35,000  Level FlightAware
08:36 52.0930 -11.6110 295° West 424 488 35,000  Level FlightAware
08:37 52.1250 -11.7190 296° West 425 489 35,000  Level FlightAware
08:38 52.1700 -11.8710 296° West 426 490 35,000  Level FlightAware
08:38 52.2030 -11.9840 296° West 427 491 35,000  Level FlightAware
08:39 52.2410 -12.1140 296° West 427 491 35,000  Level FlightAware
08:40 52.2770 -12.2410 295° West 428 493 35,000  Level FlightAware
08:40 52.3100 -12.3560 295° West 432 497 35,000  Level FlightAware
08:41 52.3450 -12.4760 296° West 432 497 35,000  Level FlightAware
08:42 52.3910 -12.6440 294° West 432 497 35,000  Level FlightAware
08:43 52.4270 -12.7700 295° West 432 497 35,000  Level FlightAware
08:43 52.4610 -12.8930 294° West 432 497 35,000  Level FlightAware
08:44 52.5060 -13.0540 295° West 432 497 35,000  Level FlightAware
08:45 52.5440 -13.1900 295° West 432 497 35,000  Level FlightAware
08:46 52.5750 -13.3030 294° West 432 497 35,000  Level FlightAware
08:46 52.6020 -13.4050 294° West 432 497 35,000  Level FlightAware
08:47 52.6300 -13.5070 294° West 432 497 35,000  Level FlightAware
08:48 52.6650 -13.6350 294° West 432 497 35,000  Level FlightAware
08:49 52.6920 -13.7370 294° West 432 497 35,000  Level FlightAware
08:49 52.7200 -13.8400 294° West 432 497 35,000  Level FlightAware
08:50 52.7480 -13.9420 294° West 432 497 35,000  Level FlightAware
08:51 52.7750 -14.0450 293° West 432 497 35,000  Level FlightAware
08:51 52.8100 -14.1730 294° West 432 497 35,000  Level FlightAware
08:52 52.8370 -14.2760 293° West 432 497 35,000  Level FlightAware
08:53 52.8650 -14.3790 294° West 432 497 35,000  Level FlightAware
08:53 52.8930 -14.4820 294° West 432 497 35,000  Level FlightAware
08:54 52.9200 -14.5850 294° West 432 497 35,000  Level FlightAware
08:55 52.9550 -14.7130 294° West 432 497 35,000  Level FlightAware
08:57 53.0004 -15.0365 283° West  Level Estimated
08:58 53.0277 -15.2350 283° West  Level Estimated
08:59 53.0547 -15.4336 283° West  Level Estimated
09:00 53.0813 -15.6325 283° West  Level Estimated
09:01 53.1077 -15.8317 282° West  Level Estimated
09:02 53.1337 -16.0311 282° West  Level Estimated
09:03 53.1594 -16.2307 282° West  Level Estimated
09:04 53.1847 -16.4306 282° West  Level Estimated
09:05 53.2097 -16.6307 282° West  Level Estimated
09:06 53.2343 -16.8311 282° West  Level Estimated
09:07 53.2587 -17.0316 282° West  Level Estimated
09:08 53.2827 -17.2324 281° West  Level Estimated
09:09 53.3050 -17.4222 281° West  Level Estimated
09:10 53.3270 -17.6121 281° West  Level Estimated
09:11 53.3488 -17.8022 281° West  Level Estimated
09:12 53.3702 -17.9925 281° West  Level Estimated
09:13 53.3913 -18.1830 281° West  Level Estimated
09:14 53.4121 -18.3737 280° West  Level Estimated
09:15 53.4326 -18.5646 280° West  Level Estimated
09:16 53.4529 -18.7556 280° West  Level Estimated
09:17 53.4728 -18.9468 280° West  Level Estimated
09:18 53.4924 -19.1383 280° West  Level Estimated
09:19 53.5117 -19.3298 280° West  Level Estimated
09:20 53.5307 -19.5216 280° West  Level Estimated
09:21 53.5493 -19.7135 279° West  Level Estimated
09:21 53.0000 -20.0000 265° West 418 481 35,000  Level ETMS Enhanced Traffic Management System
09:22 53.5677 -19.9056 279° West  Level Estimated
09:23 53.5858 -20.0979 279° West  Level Estimated
09:24 53.6049 -20.3054 279° West  Level Estimated
09:25 53.6237 -20.5132 279° West  Level Estimated
09:26 53.6421 -20.7211 279° West  Level Estimated
09:27 52.9167 -21.3444 264° West 418 481 35,000  Level FlightAware Transoceanic
09:28 52.9036 -21.5360 263° West 418 481 35,000  Level FlightAware Transoceanic
09:29 52.8901 -21.7275 263° West 418 481 35,000  Level FlightAware Transoceanic
09:30 52.8764 -21.9189 263° West 418 481 35,000  Level FlightAware Transoceanic
09:31 52.8623 -22.1101 263° West 418 481 35,000  Level FlightAware Transoceanic
09:32 52.8480 -22.3013 263° West 418 481 35,000  Level FlightAware Transoceanic
09:33 52.8333 -22.4923 263° West 418 481 35,000  Level FlightAware Transoceanic
09:34 52.8183 -22.6831 263° West 418 481 35,000  Level FlightAware Transoceanic
09:35 52.8031 -22.8739 262° West 418 481 35,000  Level FlightAware Transoceanic
09:36 52.7875 -23.0645 262° West 418 481 35,000  Level FlightAware Transoceanic
09:37 52.7716 -23.2549 262° West 418 481 35,000  Level FlightAware Transoceanic
09:38 52.7554 -23.4453 262° West 418 481 35,000  Level FlightAware Transoceanic
09:39 52.7389 -23.6354 262° West 418 481 35,000  Level FlightAware Transoceanic
09:40 52.7221 -23.8255 262° West 418 481 35,000  Level FlightAware Transoceanic
09:41 52.7049 -24.0154 261° West 418 481 35,000  Level FlightAware Transoceanic
09:42 52.6875 -24.2051 261° West 418 481 35,000  Level FlightAware Transoceanic
09:43 52.6698 -24.3947 261° West 418 481 35,000  Level FlightAware Transoceanic
09:44 52.6518 -24.5841 261° West 418 481 35,000  Level FlightAware Transoceanic
09:45 52.6335 -24.7734 261° West 418 481 35,000  Level FlightAware Transoceanic
09:46 52.6149 -24.9625 261° West 418 481 35,000  Level FlightAware Transoceanic
09:47 52.5959 -25.1515 261° West 418 481 35,000  Level FlightAware Transoceanic
09:48 52.5767 -25.3403 260° West 418 481 35,000  Level FlightAware Transoceanic
09:49 52.5572 -25.5289 260° West 418 481 35,000  Level FlightAware Transoceanic
09:50 52.5374 -25.7173 260° West 418 481 35,000  Level FlightAware Transoceanic
09:51 52.5173 -25.9056 260° West 418 481 35,000  Level FlightAware Transoceanic
09:52 52.4968 -26.0937 260° West 418 481 35,000  Level FlightAware Transoceanic
09:53 52.4761 -26.2817 260° West 418 481 35,000  Level FlightAware Transoceanic
09:54 52.4551 -26.4694 260° West 418 481 35,000  Level FlightAware Transoceanic
09:55 52.4338 -26.6570 259° West 418 481 35,000  Level FlightAware Transoceanic
09:56 52.4122 -26.8444 259° West 418 481 35,000  Level FlightAware Transoceanic
09:57 52.3903 -27.0316 259° West 418 481 35,000  Level FlightAware Transoceanic
09:58 52.3681 -27.2186 259° West 418 481 35,000  Level FlightAware Transoceanic
09:59 52.3456 -27.4054 259° West 418 481 35,000  Level FlightAware Transoceanic
10:00 52.3228 -27.5921 259° West 418 481 35,000  Level FlightAware Transoceanic
10:01 52.2997 -27.7785 258° West 418 481 35,000  Level FlightAware Transoceanic
10:02 52.2763 -27.9648 258° West 418 481 35,000  Level FlightAware Transoceanic
10:03 52.2527 -28.1508 258° West 418 481 35,000  Level FlightAware Transoceanic
10:04 52.2287 -28.3367 258° West 418 481 35,000  Level FlightAware Transoceanic
10:05 52.2044 -28.5223 258° West 418 481 35,000  Level FlightAware Transoceanic
10:06 52.1799 -28.7078 258° West 418 481 35,000  Level FlightAware Transoceanic
10:07 52.1551 -28.8930 258° West 418 481 35,000  Level FlightAware Transoceanic
10:08 52.1300 -29.0780 257° West 418 481 35,000  Level FlightAware Transoceanic
10:09 52.1045 -29.2628 257° West 418 481 35,000  Level FlightAware Transoceanic
10:10 52.0788 -29.4475 257° West 418 481 35,000  Level FlightAware Transoceanic
10:11 52.0528 -29.6318 257° West 418 481 35,000  Level FlightAware Transoceanic
10:12 52.0266 -29.8160 257° West 418 481 35,000  Level FlightAware Transoceanic
10:13 51.9981 -30.0132 257° West  Level FlightAware Approximate
10:14 51.9984 -30.0270 264° West  Level FlightAware Approximate
10:15 51.9860 -30.2284 264° West  Level FlightAware Approximate
10:16 51.9733 -30.4297 264° West  Level FlightAware Approximate
10:17 51.9602 -30.6309 264° West  Level FlightAware Approximate
10:17 52.0000 -30.0000 265° West 419 482 35,000  Level ETMS Enhanced Traffic Management System
10:18 51.9468 -30.8320 264° West  Level FlightAware Approximate
10:19 51.9331 -31.0330 264° West  Level FlightAware Approximate
10:20 51.9190 -31.2338 264° West  Level FlightAware Approximate
10:21 51.9053 -31.4346 264° West  Level FlightAware Approximate
10:22 51.8913 -31.6354 264° West  Level FlightAware Approximate
10:23 51.8795 -31.8823 263° West 419 482 35,000  Level FlightAware Transoceanic
10:24 51.8658 -32.0699 263° West 419 482 35,000  Level FlightAware Transoceanic
10:25 51.8518 -32.2575 263° West 419 482 35,000  Level FlightAware Transoceanic
10:26 51.8375 -32.4449 263° West 419 482 35,000  Level FlightAware Transoceanic
10:27 51.8229 -32.6322 263° West 419 482 35,000  Level FlightAware Transoceanic
10:28 51.8081 -32.8193 263° West 419 482 35,000  Level FlightAware Transoceanic
10:29 51.7929 -33.0064 262° West 419 482 35,000  Level FlightAware Transoceanic
10:30 51.7774 -33.1933 262° West 419 482 35,000  Level FlightAware Transoceanic
10:31 51.7616 -33.3801 262° West 419 482 35,000  Level FlightAware Transoceanic
10:32 51.7455 -33.5667 262° West 419 482 35,000  Level FlightAware Transoceanic
10:33 51.7292 -33.7533 262° West 419 482 35,000  Level FlightAware Transoceanic
10:34 51.7125 -33.9397 262° West 419 482 35,000  Level FlightAware Transoceanic
10:35 51.6956 -34.1259 262° West 419 482 35,000  Level FlightAware Transoceanic
10:36 51.6783 -34.3120 261° West 419 482 35,000  Level FlightAware Transoceanic
10:37 51.6608 -34.4980 261° West 419 482 35,000  Level FlightAware Transoceanic
10:38 51.6429 -34.6838 261° West 419 482 35,000  Level FlightAware Transoceanic
10:39 51.6248 -34.8695 261° West 419 482 35,000  Level FlightAware Transoceanic
10:40 51.6064 -35.0550 261° West 419 482 35,000  Level FlightAware Transoceanic
10:41 51.5877 -35.2404 261° West 419 482 35,000  Level FlightAware Transoceanic
10:42 51.5686 -35.4256 261° West 419 482 35,000  Level FlightAware Transoceanic
10:43 51.5493 -35.6106 260° West 419 482 35,000  Level FlightAware Transoceanic
10:44 51.5298 -35.7956 260° West 419 482 35,000  Level FlightAware Transoceanic
10:45 51.5099 -35.9803 260° West 419 482 35,000  Level FlightAware Transoceanic
10:46 51.4897 -36.1649 260° West 419 482 35,000  Level FlightAware Transoceanic
10:47 51.4692 -36.3493 260° West 419 482 35,000  Level FlightAware Transoceanic
10:48 51.4485 -36.5335 260° West 419 482 35,000  Level FlightAware Transoceanic
10:49 51.4274 -36.7176 260° West 419 482 35,000  Level FlightAware Transoceanic
10:50 51.4061 -36.9015 259° West 419 482 35,000  Level FlightAware Transoceanic
10:51 51.3845 -37.0853 259° West 419 482 35,000  Level FlightAware Transoceanic
10:52 51.3626 -37.2688 259° West 419 482 35,000  Level FlightAware Transoceanic
10:53 51.3404 -37.4522 259° West 419 482 35,000  Level FlightAware Transoceanic
10:54 51.3179 -37.6354 259° West 419 482 35,000  Level FlightAware Transoceanic
10:55 51.2952 -37.8185 259° West 419 482 35,000  Level FlightAware Transoceanic
10:56 51.2721 -38.0013 259° West 419 482 35,000  Level FlightAware Transoceanic
10:57 51.2488 -38.1839 258° West 419 482 35,000  Level FlightAware Transoceanic
10:58 51.2252 -38.3664 258° West 419 482 35,000  Level FlightAware Transoceanic
10:59 51.2013 -38.5487 258° West 419 482 35,000  Level FlightAware Transoceanic
11:00 51.1771 -38.7308 258° West 419 482 35,000  Level FlightAware Transoceanic
11:01 51.1527 -38.9127 258° West 419 482 35,000  Level FlightAware Transoceanic
11:02 51.1279 -39.0944 258° West 419 482 35,000  Level FlightAware Transoceanic
11:03 51.1029 -39.2759 258° West 419 482 35,000  Level FlightAware Transoceanic
11:04 51.0776 -39.4572 257° West 419 482 35,000  Level FlightAware Transoceanic
11:05 51.0520 -39.6384 257° West 419 482 35,000  Level FlightAware Transoceanic
11:06 51.0261 -39.8193 257° West 419 482 35,000  Level FlightAware Transoceanic
11:07 50.9982 -40.0124 257° West  Level FlightAware Approximate
11:08 50.9943 -40.0237 249° West  Level FlightAware Approximate
11:09 50.9493 -40.2083 249° West  Level FlightAware Approximate
11:10 50.9040 -40.3926 249° West  Level FlightAware Approximate
11:11 50.8584 -40.5765 249° West  Level FlightAware Approximate
11:12 50.8126 -40.7600 248° West  Level FlightAware Approximate
11:13 50.7664 -40.9431 248° West  Level FlightAware Approximate
11:14 50.7200 -41.1260 248° West  Level FlightAware Approximate
11:15 50.6733 -41.3084 248° West  Level FlightAware Approximate
11:16 50.6263 -41.4905 248° West  Level FlightAware Approximate
11:17 50.5790 -41.6722 248° West  Level FlightAware Approximate
11:18 50.5314 -41.8535 248° West  Level FlightAware Approximate
11:19 50.4836 -42.0345 247° West  Level FlightAware Approximate
11:20 50.4355 -42.2151 247° West  Level FlightAware Approximate
11:21 50.3871 -42.3954 247° West  Level FlightAware Approximate
11:22 50.3384 -42.5753 247° West  Level FlightAware Approximate
11:23 50.2894 -42.7548 247° West  Level FlightAware Approximate
11:24 50.2402 -42.9339 247° West  Level FlightAware Approximate
11:25 50.1907 -43.1127 247° West  Level FlightAware Approximate
11:25 51.0000 -40.0000 249° West 436 502 35,000  Level ETMS Enhanced Traffic Management System
11:26 50.1409 -43.2911 247° West  Level FlightAware Approximate
11:27 50.0909 -43.4691 246° West  Level FlightAware Approximate
11:28 50.0405 -43.6468 246° West  Level FlightAware Approximate
11:29 49.9899 -43.8240 246° West  Level FlightAware Approximate
11:30 49.9391 -44.0009 246° West  Level FlightAware Approximate
11:31 49.9339 -44.0442 246° West 436 502 35,000  Level FlightAware Transoceanic
11:32 49.8844 -44.2159 246° West 436 502 35,000  Level FlightAware Transoceanic
11:33 49.8347 -44.3872 246° West 436 502 35,000  Level FlightAware Transoceanic
11:34 49.7847 -44.5581 246° West 436 502 35,000  Level FlightAware Transoceanic
11:35 49.7344 -44.7287 245° Southwest 436 502 35,000  Level FlightAware Transoceanic
11:36 49.6839 -44.8990 245° Southwest 436 502 35,000  Level FlightAware Transoceanic
11:37 49.6332 -45.0689 245° Southwest 436 502 35,000  Level FlightAware Transoceanic
11:38 49.5822 -45.2384 245° Southwest 436 502 35,000  Level FlightAware Transoceanic
11:39 49.5310 -45.4076 245° Southwest 436 502 35,000  Level FlightAware Transoceanic
11:40 49.4795 -45.5764 245° Southwest 436 502 35,000  Level FlightAware Transoceanic
11:41 49.4278 -45.7449 245° Southwest 436 502 35,000  Level FlightAware Transoceanic
11:42 49.3758 -45.9130 245° Southwest 436 502 35,000  Level FlightAware Transoceanic
11:43 49.3236 -46.0808 244° Southwest 436 502 35,000  Level FlightAware Transoceanic
11:44 49.2711 -46.2482 244° Southwest 436 502 35,000  Level FlightAware Transoceanic
11:45 49.2184 -46.4153 244° Southwest 436 502 35,000  Level FlightAware Transoceanic
11:46 49.1655 -46.5820 244° Southwest 436 502 35,000  Level FlightAware Transoceanic
11:47 49.1123 -46.7483 244° Southwest 436 502 35,000  Level FlightAware Transoceanic
11:48 49.0589 -46.9143 244° Southwest 436 502 35,000  Level FlightAware Transoceanic
11:49 49.0053 -47.0799 244° Southwest 436 502 35,000  Level FlightAware Transoceanic
11:50 48.9514 -47.2452 244° Southwest 436 502 35,000  Level FlightAware Transoceanic
11:51 48.8973 -47.4101 243° Southwest 436 502 35,000  Level FlightAware Transoceanic
11:52 48.8429 -47.5746 243° Southwest 436 502 35,000  Level FlightAware Transoceanic
11:53 48.7883 -47.7388 243° Southwest 436 502 35,000  Level FlightAware Transoceanic
11:54 48.7335 -47.9027 243° Southwest 436 502 35,000  Level FlightAware Transoceanic
11:55 48.6784 -48.0661 243° Southwest 436 502 35,000  Level FlightAware Transoceanic
11:56 48.6231 -48.2293 243° Southwest 436 502 35,000  Level FlightAware Transoceanic
11:57 48.5676 -48.3920 243° Southwest 436 502 35,000  Level FlightAware Transoceanic
11:58 48.5119 -48.5544 243° Southwest 436 502 35,000  Level FlightAware Transoceanic
11:59 48.4559 -48.7165 242° Southwest 436 502 35,000  Level FlightAware Transoceanic
12:00 48.3997 -48.8782 242° Southwest 436 502 35,000  Level FlightAware Transoceanic
12:01 48.3433 -49.0395 242° Southwest 436 502 35,000  Level FlightAware Transoceanic
12:02 48.2866 -49.2005 242° Southwest 436 502 35,000  Level FlightAware Transoceanic
12:03 48.2297 -49.3611 242° Southwest 436 502 35,000  Level FlightAware Transoceanic
12:04 48.1726 -49.5214 242° Southwest 436 502 35,000  Level FlightAware Transoceanic
12:05 48.1153 -49.6813 242° Southwest 436 502 35,000  Level FlightAware Transoceanic
12:06 48.0578 -49.8408 242° Southwest 436 502 35,000  Level FlightAware Transoceanic
12:07 47.9931 -50.0002 239° Southwest  Level FlightAware Approximate
12:08 47.9985 -50.0083 255° West  Level FlightAware Approximate
12:09 47.9663 -50.1882 255° West  Level FlightAware Approximate
12:09 48.0000 -50.0000 255° West 415 478 35,000  Level ETMS Enhanced Traffic Management System
12:10 47.9337 -50.3678 255° West  Level FlightAware Approximate
12:11 47.9045 -50.5276 255° West  Level FlightAware Approximate
12:12 47.8714 -50.7068 255° West  Level FlightAware Approximate
12:13 47.8381 -50.8858 255° West  Level FlightAware Approximate
12:13 47.8410 -51.0030 256° West 430 495 35,000  Level FlightAware
12:14 47.8055 -51.0650 256° West  Level FlightAware Approximate
12:14 47.8220 -51.0970 253° West 430 495 35,000  Level FlightAware
12:14 47.8030 -51.2170 256° West 430 495 35,000  Level FlightAware
12:15 47.8036 -51.0764 256° West  Level FlightAware Approximate
12:15 47.7810 -51.3340 254° West 430 495 35,000  Level FlightAware
12:16 47.7540 -51.4820 255° West 430 495 35,000  Level FlightAware
12:17 47.7320 -51.6020 255° West 430 495 35,000  Level FlightAware
12:17 47.7110 -51.7160 255° West 430 495 35,000  Level FlightAware
12:18 47.6880 -51.8420 255° West 431 496 35,000  Level FlightAware
12:19 47.6660 -51.9570 254° West 431 496 35,000  Level FlightAware
12:19 47.6450 -52.0680 254° West 428 493 35,000  Level FlightAware
12:20 47.6210 -52.1990 255° West 426 490 35,000  Level FlightAware
12:21 47.5990 -52.3100 254° West 426 490 35,000  Level FlightAware
12:22 47.5780 -52.4210 254° West 425 489 35,000  Level FlightAware
12:22 47.5540 -52.5460 254° West 424 488 35,000 60 Level FlightAware
12:23 47.5300 -52.6720 254° West 424 488 35,100 480 Climbing FlightAware
12:24 47.5110 -52.7710 254° West 425 489 35,700 600 Climbing FlightAware
12:24 47.4920 -52.9100 259° West 426 490 36,000 180 Climbing FlightAware
12:25 47.4860 -53.0280 266° West 420 483 36,000  Level FlightAware
12:26 47.4820 -53.1410 267° West 416 479 36,000  Level FlightAware
12:27 47.4760 -53.2620 266° West 415 478 36,000  Level FlightAware
12:27 47.4710 -53.3700 266° West 413 475 36,000  Level FlightAware
12:28 47.4650 -53.5020 266° West 412 474 36,000  Level FlightAware
12:29 47.4600 -53.6030 266° West 412 474 36,000  Level FlightAware
12:29 47.4333 -53.6333 266° West 410 472 36,000  Level Moncton Center
12:30 47.4167 -53.8167 262° West 410 472 36,000  Level Moncton Center
12:31 47.4000 -53.9833 262° West 420 483 36,000  Level Moncton Center
12:32 47.4000 -54.1667 270° West 420 483 36,000  Level Moncton Center
12:33 47.3833 -54.3333 262° West 420 483 36,000  Level Moncton Center
12:39 47.3560 -55.4150 262° West 421 484 36,000  Level FlightAware
12:40 47.3430 -55.6160 265° West 421 484 36,000  Level FlightAware
12:41 47.3330 -55.7580 264° West 421 484 36,000  Level FlightAware
12:42 47.3250 -55.8930 265° West 420 483 36,000  Level FlightAware
12:43 47.3160 -56.0120 264° West 420 483 36,000  Level FlightAware
12:43 47.3080 -56.1260 264° West 420 483 36,000  Level FlightAware
12:44 47.3000 -56.2500 265° West 420 483 36,000  Level FlightAware
12:45 47.2920 -56.3570 264° West 419 482 36,000  Level FlightAware
12:46 47.2800 -56.5170 264° West 419 482 36,000  Level FlightAware
12:46 47.2700 -56.6590 264° West 420 483 36,000  Level FlightAware
12:47 47.2580 -56.8080 263° West 420 483 36,000  Level FlightAware
12:48 47.2500 -56.9170 264° West 420 483 36,000  Level FlightAware
12:49 47.2410 -57.0220 263° West 420 483 36,000  Level FlightAware
12:49 47.2340 -57.1270 264° West 420 483 36,000  Level FlightAware
12:50 47.2240 -57.2520 263° West 420 483 36,000  Level FlightAware
12:51 47.2110 -57.4050 263° West 420 483 36,000  Level FlightAware
12:52 47.2010 -57.5250 263° West 420 483 36,000  Level FlightAware
12:52 47.1930 -57.6220 263° West 420 483 36,000  Level FlightAware
12:53 47.1800 -57.7800 263° West 420 483 36,000  Level FlightAware
12:54 47.1690 -57.8940 262° West 420 483 36,000  Level FlightAware
12:54 47.1590 -58.0250 264° West 418 481 36,000  Level FlightAware
12:55 47.1480 -58.1450 262° West 417 480 36,000  Level FlightAware
12:56 47.1360 -58.2760 262° West 417 480 36,000  Level FlightAware
12:57 47.1260 -58.3870 262° West 416 479 36,000  Level FlightAware
12:57 47.1160 -58.4970 262° West 416 479 36,000  Level FlightAware
12:58 47.1040 -58.6210 262° West 415 478 36,000  Level FlightAware
12:59 47.0940 -58.7350 263° West 414 476 36,000  Level FlightAware
12:59 47.0820 -58.8620 262° West 414 476 36,000  Level FlightAware
13:00 47.0710 -58.9720 262° West 415 478 36,000  Level FlightAware
13:01 47.0590 -59.0940 262° West 415 478 36,000  Level FlightAware
13:02 47.0480 -59.2070 262° West 415 478 36,000  Level FlightAware
13:02 47.0370 -59.3180 262° West 416 479 36,000  Level FlightAware
13:03 47.0250 -59.4290 261° West 416 479 36,000  Level FlightAware
13:04 47.0120 -59.5580 262° West 417 480 36,000  Level FlightAware
13:04 47.0000 -59.6800 262° West 417 480 36,000  Level FlightAware
13:05 46.9880 -59.7910 261° West 416 479 36,000  Level FlightAware
13:06 46.9760 -59.9020 261° West 418 481 36,000  Level FlightAware
13:06 46.9630 -60.0310 262° West 417 480 36,000  Level FlightAware
13:07 46.9510 -60.1410 261° West 417 480 36,000  Level FlightAware
13:08 46.9390 -60.2530 261° West 416 479 36,000  Level FlightAware
13:09 46.9250 -60.3750 261° West 416 479 36,000  Level FlightAware
13:09 46.9130 -60.4840 261° West 416 479 36,000  Level FlightAware
13:10 46.8990 -60.6110 261° West 420 483 36,000  Level FlightAware
13:11 46.8860 -60.7240 260° West 422 486 36,000  Level FlightAware
13:11 46.8730 -60.8370 260° West 422 486 36,000  Level FlightAware
13:12 46.8580 -60.9610 260° West 422 486 36,000  Level FlightAware
13:13 46.8500 -61.0750 264° West 423 487 36,000  Level FlightAware
13:13 46.8430 -61.2000 265° West 423 487 36,000  Level FlightAware
13:14 46.8380 -61.3090 266° West 423 487 36,000  Level FlightAware
13:15 46.8310 -61.4430 266° West 422 486 36,000  Level FlightAware
13:16 46.8230 -61.5770 265° West 423 487 36,000  Level FlightAware
13:17 46.8140 -61.7410 265° West 422 486 36,000  Level FlightAware
13:17 46.8090 -61.8380 266° West 422 486 36,000  Level FlightAware
13:18 46.8030 -61.9340 265° West 422 486 36,000  Level FlightAware
13:19 46.7940 -62.1070 266° West 420 483 36,000  Level FlightAware
13:19 46.7880 -62.2130 265° West 419 482 36,000  Level FlightAware
13:20 46.7820 -62.3170 265° West 419 482 36,000  Level FlightAware
13:21 46.7740 -62.4450 265° West 419 482 36,000  Level FlightAware
13:22 46.7660 -62.5680 265° West 420 483 36,000  Level FlightAware
13:22 46.7580 -62.6960 265° West 420 483 36,000  Level FlightAware
13:23 46.7500 -62.8100 264° West 421 484 36,000  Level FlightAware
13:24 46.7430 -62.9220 265° West 420 483 36,000  Level FlightAware
13:25 46.7330 -63.0720 264° West 421 484 36,000  Level FlightAware
13:25 46.7260 -63.1680 264° West 421 484 36,000  Level FlightAware
13:26 46.7170 -63.2880 264° West 421 484 36,000  Level FlightAware
13:27 46.7100 -63.3850 264° West 421 484 36,000  Level FlightAware
13:27 46.7030 -63.4810 264° West 421 484 36,000  Level FlightAware
13:28 46.6960 -63.5770 264° West 421 484 36,000  Level FlightAware
13:29 46.6890 -63.6730 264° West 421 484 36,000  Level FlightAware
13:30 46.6810 -63.7930 264° West 421 484 36,000  Level FlightAware
13:30 46.6740 -63.8890 264° West 421 484 36,000  Level FlightAware
13:31 46.6670 -63.9850 264° West 421 484 36,000  Level FlightAware
13:32 46.6600 -64.0810 264° West 421 484 36,000  Level FlightAware
13:32 46.6530 -64.1770 264° West 421 484 36,000  Level FlightAware
13:33 46.6440 -64.2960 264° West 421 484 36,000  Level FlightAware
13:34 46.6370 -64.3920 264° West 421 484 36,000  Level FlightAware
13:34 46.5833 -64.6667 264° West 420 483 36,000  Level Moncton Center
13:35 46.5833 -64.8333 270° West 420 483 36,000  Level Moncton Center
13:36 46.5667 -64.9833 261° West 410 472 36,000  Level Moncton Center
13:37 46.5500 -65.1833 263° West 410 472 36,000  Level Moncton Center
13:38 46.5167 -65.3167 250° West 420 483 36,000  Level Moncton Center
13:39 46.5000 -65.4833 262° West 420 483 36,000 240 Level Moncton Center
13:45 46.4440 -66.5410 262° West 418 481 38,000 240 Climbing FlightAware
13:46 46.4340 -66.6530 263° West 418 481 38,000  Level FlightAware
13:47 46.4220 -66.7650 261° West 419 482 38,000  Level FlightAware
13:48 46.4100 -66.8830 262° West 419 482 38,000  Level FlightAware
13:48 46.3960 -67.0100 261° West 423 487 38,000  Level FlightAware
13:49 46.3790 -67.1710 261° West 425 489 38,000  Level FlightAware
13:50 46.3690 -67.2670 261° West 425 489 38,000  Level FlightAware
13:51 46.3540 -67.4170 262° West 427 491 38,000  Level FlightAware
13:51 46.3430 -67.5130 261° West 427 491 38,000  Level FlightAware
13:52 46.3300 -67.6440 262° West 38,000  Level FlightAware
13:53 46.3150 -67.7760 261° West 430 495 38,000  Level FlightAware
13:53 46.3010 -67.9080 261° West 433 498 38,000  Level FlightAware
13:54 46.2880 -68.0230 261° West 436 502 38,000  Level FlightAware
13:55 46.2750 -68.1390 261° West 437 503 38,000  Level FlightAware
13:55 46.2600 -68.2680 260° West 437 503 38,000  Level FlightAware
13:56 46.2510 -68.3530 261° West 438 504 38,000  Level FlightAware
13:57 46.2370 -68.4680 260° West 438 504 38,000  Level FlightAware
13:57 46.2240 -68.5840 261° West 437 503 38,000  Level FlightAware
13:58 46.2110 -68.6980 261° West 435 501 38,000  Level FlightAware
13:59 46.1960 -68.8260 260° West 433 498 38,000  Level FlightAware
13:59 46.1820 -68.9390 260° West 433 498 38,000  Level FlightAware
14:00 46.1670 -69.0660 260° West 433 498 38,000  Level FlightAware
14:01 46.1530 -69.1800 260° West 433 498 38,000  Level FlightAware
14:01 46.1390 -69.2940 260° West 434 499 38,000  Level FlightAware
14:02 46.1230 -69.4210 260° West 432 497 38,000  Level FlightAware
14:03 46.1100 -69.5330 261° West 431 496 38,000  Level FlightAware
14:04 46.0930 -69.6600 259° West 430 495 38,000  Level FlightAware
14:04 46.0790 -69.7720 260° West 430 495 38,000  Level FlightAware
14:05 46.0650 -69.8840 260° West 429 494 38,000  Level FlightAware
14:06 46.0490 -70.0100 260° West 428 493 38,000  Level FlightAware
14:06 46.0350 -70.1210 260° West 428 493 38,000  Level FlightAware
14:07 46.0410 -70.2490 274° West 432 497 38,000  Level FlightAware
14:08 46.0500 -70.3620 277° West 432 497 38,000  Level FlightAware
14:08 46.0580 -70.4780 276° West 434 499 38,000  Level FlightAware
14:09 46.0680 -70.6070 276° West 437 503 38,000  Level FlightAware
14:10 46.0730 -70.7220 274° West 438 504 38,000  Level FlightAware
14:11 46.0730 -70.8530 270° West 439 505 38,000  Level FlightAware
14:11 46.0730 -70.9690 270° West 440 506 38,000 -180 Level FlightAware
14:12 46.0700 -71.0860 268° West 441 507 37,800 -1,200 Descending FlightAware
14:13 46.0560 -71.2170 261° West 441 507 36,300 -1,860 Descending FlightAware
14:13 46.0370 -71.3280 256° West 437 503 35,200 -2,580 Descending FlightAware
14:14 46.0140 -71.4570 256° West 444 511 32,700 -3,060 Descending FlightAware
14:15 45.9930 -71.5700 255° West 439 505 30,900 -2,640 Descending FlightAware
14:15 45.9720 -71.6820 255° West 429 494 29,200 -2,400 Descending FlightAware
14:16 45.9480 -71.8030 254° West 418 481 27,500 -2,340 Descending FlightAware
14:17 45.9280 -71.9080 255° West 409 471 25,900 -2,280 Descending FlightAware
14:18 45.9060 -72.0240 255° West 402 463 24,300 -2,220 Descending FlightAware
14:18 45.8870 -72.1240 255° West 396 456 22,800 -2,280 Descending FlightAware
14:19 45.8680 -72.2250 255° West 390 449 21,300 -2,220 Descending FlightAware
14:20 45.8470 -72.3340 255° West 381 438 19,700 -2,220 Descending FlightAware
14:20 45.8280 -72.4300 254° West 376 433 18,200 -2,220 Descending FlightAware
14:21 45.8070 -72.5390 255° West 370 426 16,600 -2,160 Descending FlightAware
14:22 45.7890 -72.6320 255° West 367 422 15,200 -2,160 Descending FlightAware
14:22 45.7750 -72.7020 254° West 366 421 14,100 -2,160 Descending FlightAware
14:23 45.7610 -72.7820 256° West 361 415 12,900 -2,100 Descending FlightAware
14:24 45.7510 -72.8880 262° West 352 405 11,300 -1,620 Descending FlightAware
14:24 45.7410 -72.9880 262° West 327 376 10,500 -960 Descending FlightAware
14:25 45.7330 -73.0690 262° West 298 343 10,000 -780 Descending FlightAware
14:26 45.7260 -73.1250 260° West 283 326 9,600 -1,020 Descending FlightAware
14:26 45.7190 -73.1720 258° West 276 318 9,100 -1,320 Descending FlightAware
14:26 45.7100 -73.2240 256° West 273 314 8,400 -1,680 Descending FlightAware
14:27 45.7030 -73.2670 257° West 273 314 7,600 -1,920 Descending FlightAware
14:27 45.6980 -73.3020 258° West 271 312 7,000 -1,920 Descending FlightAware
14:28 45.6900 -73.3470 256° West 269 310 6,200 -1,980 Descending FlightAware
14:28 45.6860 -73.3720 257° West 269 310 5,700 -1,980 Descending FlightAware
14:28 45.6790 -73.4150 257° West 267 307 4,900 -1,800 Descending FlightAware
14:29 45.6700 -73.4670 256° West 257 296 4,100 -1,320 Descending FlightAware
14:29 45.6620 -73.5130 256° West 233 268 3,600 -1,020 Descending FlightAware
14:30 45.6490 -73.5440 239° Southwest 217 250 3,200 -600 Descending FlightAware
14:30 45.6280 -73.5730 224° Southwest 203 234 3,100 -240 Descending FlightAware
14:31 45.6110 -73.5960 223° Southwest 188 216 3,000 -660 Descending FlightAware
14:31 45.5920 -73.6220 224° Southwest 186 214 2,500 -900 Descending FlightAware
14:32 45.5740 -73.6460 223° Southwest 183 211 2,100 -900 Descending FlightAware
14:32 45.5600 -73.6650 224° Southwest 164 189 1,700 -1,080 Descending FlightAware
14:32 45.5510 -73.6770 223° Southwest 152 175 1,400 -780 Descending FlightAware
14:33 45.5380 -73.6930 221° Southwest 153 176 1,200 -660 Descending FlightAware
14:34 45.5000 -73.7440 223° Southwest 139 160 200 -720 Descending FlightAware